sensor_id;sensor_type;location;lat;lon;timestamp;temperature;humidity
1361;DHT22;674;45.552;-122.600;2023-03-01T00:01:49;3.90;99.90
1361;DHT22;674;45.552;-122.600;2023-03-01T00:04:18;4.10;99.90
1361;DHT22;674;45.552;-122.600;2023-03-01T00:06:46;3.90;99.90
1361;DHT22;674;45.552;-122.600;2023-03-01T00:09:16;3.60;99.90
1361;DHT22;674;45.552;-122.600;2023-03-01T00:11:45;3.60;99.90
1361;DHT22;674;45.552;-122.600;2023-03-01T00:14:14;3.90;99.90
1361;DHT22;674;45.552;-122.600;2023-03-01T00:16:45;3.80;99.90
1361;DHT22;674;45.552;-122.600;2023-03-01T00:19:16;3.60;99.90
1361;DHT22;674;45.552;-122.600;2023-03-01T00:21:46;3.70;99.90
1361;DHT22;674;45.552;-122.600;2023-03-01T00:24:15;3.70;99.90
1361;DHT22;674;45.552;-122.600;2023-03-01T00:26:44;3.50;99.90
1361;DHT22;674;45.552;-122.600;2023-03-01T00:29:12;3.80;99.90
1361;DHT22;674;45.552;-122.600;2023-03-01T00:31:40;4.00;99.90
1361;DHT22;674;45.552;-122.600;2023-03-01T00:34:09;4.10;99.90
1361;DHT22;674;45.552;-122.600;2023-03-01T00:36:38;4.10;99.90
1361;DHT22;674;45.552;-122.600;2023-03-01T00:39:11;4.10;99.90
1361;DHT22;674;45.552;-122.600;2023-03-01T00:41:41;4.00;99.90
1361;DHT22;674;45.552;-122.600;2023-03-01T00:44:10;4.10;99.90
1361;DHT22;674;45.552;-122.600;2023-03-01T00:46:38;4.30;99.90
1361;DHT22;674;45.552;-122.600;2023-03-01T00:49:07;3.90;99.90
1361;DHT22;674;45.552;-122.600;2023-03-01T00:51:35;4.00;99.90
1361;DHT22;674;45.552;-122.600;2023-03-01T00:54:04;4.10;99.90
1361;DHT22;674;45.552;-122.600;2023-03-01T00:56:32;4.10;99.90
1361;DHT22;674;45.552;-122.600;2023-03-01T00:59:01;4.10;99.90
1361;DHT22;674;45.552;-122.600;2023-03-01T01:01:30;4.00;99.90
1361;DHT22;674;45.552;-122.600;2023-03-01T01:04:03;3.90;99.90
1361;DHT22;674;45.552;-122.600;2023-03-01T01:06:38;4.00;99.90
1361;DHT22;674;45.552;-122.600;2023-03-01T01:09:09;4.20;99.90
1361;DHT22;674;45.552;-122.600;2023-03-01T01:11:49;3.90;99.90
1361;DHT22;674;45.552;-122.600;2023-03-01T01:14:18;3.80;99.90
1361;DHT22;674;45.552;-122.600;2023-03-01T01:16:47;4.30;99.90
1361;DHT22;674;45.552;-122.600;2023-03-01T01:19:17;3.70;99.90
1361;DHT22;674;45.552;-122.600;2023-03-01T01:21:45;3.90;99.90
1361;DHT22;674;45.552;-122.600;2023-03-01T01:24:15;4.10;99.90
1361;DHT22;674;45.552;-122.600;2023-03-01T01:26:44;3.90;99.90
1361;DHT22;674;45.552;-122.600;2023-03-01T01:29:13;4.00;99.90
1361;DHT22;674;45.552;-122.600;2023-03-01T01:31:42;3.90;99.90
1361;DHT22;674;45.552;-122.600;2023-03-01T01:34:16;4.10;99.90
1361;DHT22;674;45.552;-122.600;2023-03-01T01:36:52;4.00;99.90
1361;DHT22;674;45.552;-122.600;2023-03-01T01:39:23;4.30;99.90
1361;DHT22;674;45.552;-122.600;2023-03-01T01:41:52;3.80;99.90
1361;DHT22;674;45.552;-122.600;2023-03-01T01:44:26;3.60;99.90
1361;DHT22;674;45.552;-122.600;2023-03-01T01:49:49;3.70;99.90
1361;DHT22;674;45.552;-122.600;2023-03-01T01:52:34;3.80;99.90
1361;DHT22;674;45.552;-122.600;2023-03-01T01:55:11;3.90;99.90
1361;DHT22;674;45.552;-122.600;2023-03-01T01:57:52;3.80;99.90
1361;DHT22;674;45.552;-122.600;2023-03-01T02:00:25;3.80;99.90
1361;DHT22;674;45.552;-122.600;2023-03-01T02:03:04;3.60;99.90
1361;DHT22;674;45.552;-122.600;2023-03-01T02:05:52;3.60;99.90
1361;DHT22;674;45.552;-122.600;2023-03-01T02:08:26;3.80;99.90
1361;DHT22;674;45.552;-122.600;2023-03-01T02:10:56;3.70;99.90
1361;DHT22;674;45.552;-122.600;2023-03-01T02:13:26;3.80;99.90
1361;DHT22;674;45.552;-122.600;2023-03-01T02:15:54;3.80;99.90
1361;DHT22;674;45.552;-122.600;2023-03-01T02:18:24;3.40;99.90
1361;DHT22;674;45.552;-122.600;2023-03-01T02:23:25;3.80;99.90
1361;DHT22;674;45.552;-122.600;2023-03-01T02:26:07;3.50;99.90
1361;DHT22;674;45.552;-122.600;2023-03-01T02:28:38;3.60;99.90
1361;DHT22;674;45.552;-122.600;2023-03-01T02:31:11;3.60;99.90
1361;DHT22;674;45.552;-122.600;2023-03-01T02:34:01;3.30;99.90
1361;DHT22;674;45.552;-122.600;2023-03-01T02:39:18;3.60;99.90
1361;DHT22;674;45.552;-122.600;2023-03-01T02:41:51;3.60;99.90
1361;DHT22;674;45.552;-122.600;2023-03-01T02:44:21;3.60;99.90
1361;DHT22;674;45.552;-122.600;2023-03-01T02:46:53;3.50;99.90
1361;DHT22;674;45.552;-122.600;2023-03-01T02:57:31;3.60;99.90
1361;DHT22;674;45.552;-122.600;2023-03-01T03:00:13;3.70;99.90
1361;DHT22;674;45.552;-122.600;2023-03-01T03:02:49;3.40;99.90
1361;DHT22;674;45.552;-122.600;2023-03-01T03:05:20;3.50;99.90
1361;DHT22;674;45.552;-122.600;2023-03-01T03:07:50;3.60;99.90
1361;DHT22;674;45.552;-122.600;2023-03-01T03:10:30;3.60;99.90
1361;DHT22;674;45.552;-122.600;2023-03-01T03:13:05;3.60;99.90
1361;DHT22;674;45.552;-122.600;2023-03-01T03:15:34;3.20;99.90
1361;DHT22;674;45.552;-122.600;2023-03-01T03:18:12;3.30;99.90
1361;DHT22;674;45.552;-122.600;2023-03-01T03:20:42;3.40;99.90
1361;DHT22;674;45.552;-122.600;2023-03-01T03:23:11;3.10;99.90
1361;DHT22;674;45.552;-122.600;2023-03-01T03:25:40;3.30;99.90
1361;DHT22;674;45.552;-122.600;2023-03-01T03:28:08;3.20;99.90
1361;DHT22;674;45.552;-122.600;2023-03-01T03:30:41;3.20;99.90
1361;DHT22;674;45.552;-122.600;2023-03-01T03:33:11;3.00;99.90
1361;DHT22;674;45.552;-122.600;2023-03-01T03:35:48;3.00;99.90
1361;DHT22;674;45.552;-122.600;2023-03-01T03:38:19;3.10;99.90
1361;DHT22;674;45.552;-122.600;2023-03-01T03:41:12;3.10;99.90
1361;DHT22;674;45.552;-122.600;2023-03-01T03:43:40;3.10;99.90
1361;DHT22;674;45.552;-122.600;2023-03-01T03:46:11;2.70;99.90
1361;DHT22;674;45.552;-122.600;2023-03-01T03:48:42;2.60;99.90
1361;DHT22;674;45.552;-122.600;2023-03-01T03:51:14;2.70;99.90
1361;DHT22;674;45.552;-122.600;2023-03-01T03:53:43;2.60;99.90
1361;DHT22;674;45.552;-122.600;2023-03-01T03:56:12;2.70;99.90
1361;DHT22;674;45.552;-122.600;2023-03-01T03:58:40;2.70;99.90
1361;DHT22;674;45.552;-122.600;2023-03-01T04:01:09;2.60;99.90
1361;DHT22;674;45.552;-122.600;2023-03-01T04:03:37;2.70;99.90
1361;DHT22;674;45.552;-122.600;2023-03-01T04:06:06;2.90;99.90
1361;DHT22;674;45.552;-122.600;2023-03-01T04:08:34;3.10;99.90
1361;DHT22;674;45.552;-122.600;2023-03-01T04:11:04;3.00;99.90
1361;DHT22;674;45.552;-122.600;2023-03-01T04:13:52;2.90;99.90
1361;DHT22;674;45.552;-122.600;2023-03-01T04:16:21;3.40;99.90
1361;DHT22;674;45.552;-122.600;2023-03-01T04:18:51;3.20;99.90
1361;DHT22;674;45.552;-122.600;2023-03-01T04:21:21;3.20;99.90
1361;DHT22;674;45.552;-122.600;2023-03-01T04:23:50;3.20;99.90
1361;DHT22;674;45.552;-122.600;2023-03-01T04:26:20;3.30;99.90
1361;DHT22;674;45.552;-122.600;2023-03-01T04:28:49;3.20;99.90
1361;DHT22;674;45.552;-122.600;2023-03-01T04:31:19;3.30;99.90
1361;DHT22;674;45.552;-122.600;2023-03-01T04:33:51;3.00;99.90
1361;DHT22;674;45.552;-122.600;2023-03-01T04:36:25;3.10;99.90
1361;DHT22;674;45.552;-122.600;2023-03-01T04:38:55;3.10;99.90
1361;DHT22;674;45.552;-122.600;2023-03-01T04:41:24;3.10;99.90
1361;DHT22;674;45.552;-122.600;2023-03-01T04:43:53;3.10;99.90
1361;DHT22;674;45.552;-122.600;2023-03-01T04:46:22;2.90;99.90
1361;DHT22;674;45.552;-122.600;2023-03-01T04:48:50;3.10;99.90
1361;DHT22;674;45.552;-122.600;2023-03-01T04:51:19;3.00;99.90
1361;DHT22;674;45.552;-122.600;2023-03-01T04:53:47;3.00;99.90
1361;DHT22;674;45.552;-122.600;2023-03-01T04:56:16;3.00;99.90
1361;DHT22;674;45.552;-122.600;2023-03-01T04:58:47;3.00;99.90
1361;DHT22;674;45.552;-122.600;2023-03-01T05:01:18;3.00;99.90
1361;DHT22;674;45.552;-122.600;2023-03-01T05:03:49;2.90;99.90
1361;DHT22;674;45.552;-122.600;2023-03-01T05:06:19;2.80;99.90
1361;DHT22;674;45.552;-122.600;2023-03-01T05:08:48;2.90;99.90
1361;DHT22;674;45.552;-122.600;2023-03-01T05:11:17;3.00;99.90
1361;DHT22;674;45.552;-122.600;2023-03-01T05:13:45;2.70;99.90
1361;DHT22;674;45.552;-122.600;2023-03-01T05:16:14;2.80;99.90
1361;DHT22;674;45.552;-122.600;2023-03-01T05:18:42;2.80;99.90
1361;DHT22;674;45.552;-122.600;2023-03-01T05:21:13;2.80;99.90
1361;DHT22;674;45.552;-122.600;2023-03-01T05:23:45;2.70;99.90
1361;DHT22;674;45.552;-122.600;2023-03-01T05:26:16;2.60;99.90
1361;DHT22;674;45.552;-122.600;2023-03-01T05:28:55;2.70;99.90
1361;DHT22;674;45.552;-122.600;2023-03-01T05:31:27;2.70;99.90
1361;DHT22;674;45.552;-122.600;2023-03-01T05:33:56;2.50;99.90
1361;DHT22;674;45.552;-122.600;2023-03-01T05:36:25;2.50;99.90
1361;DHT22;674;45.552;-122.600;2023-03-01T05:38:53;2.50;99.90
1361;DHT22;674;45.552;-122.600;2023-03-01T05:41:22;2.50;99.90
1361;DHT22;674;45.552;-122.600;2023-03-01T05:43:51;2.40;99.90
1361;DHT22;674;45.552;-122.600;2023-03-01T05:46:19;2.10;99.90
1361;DHT22;674;45.552;-122.600;2023-03-01T05:48:48;2.20;99.90
1361;DHT22;674;45.552;-122.600;2023-03-01T05:51:16;2.20;99.90
1361;DHT22;674;45.552;-122.600;2023-03-01T05:53:45;2.20;99.90
1361;DHT22;674;45.552;-122.600;2023-03-01T05:56:14;2.20;99.90
1361;DHT22;674;45.552;-122.600;2023-03-01T05:58:42;1.80;99.90
1361;DHT22;674;45.552;-122.600;2023-03-01T06:01:13;2.20;99.90
1361;DHT22;674;45.552;-122.600;2023-03-01T06:03:42;2.20;99.90
1361;DHT22;674;45.552;-122.600;2023-03-01T06:06:10;2.00;99.90
1361;DHT22;674;45.552;-122.600;2023-03-01T06:08:39;2.20;99.90
1361;DHT22;674;45.552;-122.600;2023-03-01T06:11:07;2.10;99.90
1361;DHT22;674;45.552;-122.600;2023-03-01T06:13:36;1.70;99.90
1361;DHT22;674;45.552;-122.600;2023-03-01T06:16:07;2.10;99.90
1361;DHT22;674;45.552;-122.600;2023-03-01T06:18:37;2.00;99.90
1361;DHT22;674;45.552;-122.600;2023-03-01T06:21:08;2.20;99.90
1361;DHT22;674;45.552;-122.600;2023-03-01T06:23:37;2.10;99.90
1361;DHT22;674;45.552;-122.600;2023-03-01T06:26:06;2.20;99.90
1361;DHT22;674;45.552;-122.600;2023-03-01T06:28:35;1.90;99.90
1361;DHT22;674;45.552;-122.600;2023-03-01T06:31:04;1.80;99.90
1361;DHT22;674;45.552;-122.600;2023-03-01T06:33:36;2.20;99.90
1361;DHT22;674;45.552;-122.600;2023-03-01T06:36:05;2.20;99.90
1361;DHT22;674;45.552;-122.600;2023-03-01T06:38:34;2.00;99.90
1361;DHT22;674;45.552;-122.600;2023-03-01T06:41:02;2.00;99.90
1361;DHT22;674;45.552;-122.600;2023-03-01T06:43:31;2.00;99.90
1361;DHT22;674;45.552;-122.600;2023-03-01T06:45:59;2.20;99.90
1361;DHT22;674;45.552;-122.600;2023-03-01T06:48:28;2.20;99.90
1361;DHT22;674;45.552;-122.600;2023-03-01T06:51:01;2.00;99.90
1361;DHT22;674;45.552;-122.600;2023-03-01T06:53:29;1.80;99.90
1361;DHT22;674;45.552;-122.600;2023-03-01T06:55:58;2.10;99.90
1361;DHT22;674;45.552;-122.600;2023-03-01T06:58:29;2.20;99.90
1361;DHT22;674;45.552;-122.600;2023-03-01T07:00:58;2.00;99.90
1361;DHT22;674;45.552;-122.600;2023-03-01T07:03:26;2.30;99.90
1361;DHT22;674;45.552;-122.600;2023-03-01T07:05:55;2.20;99.90
1361;DHT22;674;45.552;-122.600;2023-03-01T07:08:23;2.30;99.90
1361;DHT22;674;45.552;-122.600;2023-03-01T07:10:56;2.30;99.90
1361;DHT22;674;45.552;-122.600;2023-03-01T07:13:25;2.20;99.90
1361;DHT22;674;45.552;-122.600;2023-03-01T07:15:53;2.40;99.90
1361;DHT22;674;45.552;-122.600;2023-03-01T07:18:22;2.10;99.90
1361;DHT22;674;45.552;-122.600;2023-03-01T07:20:50;2.20;99.90
1361;DHT22;674;45.552;-122.600;2023-03-01T07:23:19;2.30;99.90
1361;DHT22;674;45.552;-122.600;2023-03-01T07:25:54;2.00;99.90
1361;DHT22;674;45.552;-122.600;2023-03-01T07:28:24;2.10;99.90
1361;DHT22;674;45.552;-122.600;2023-03-01T07:30:53;2.50;99.90
1361;DHT22;674;45.552;-122.600;2023-03-01T07:33:21;2.20;99.90
1361;DHT22;674;45.552;-122.600;2023-03-01T07:35:57;2.20;99.90
1361;DHT22;674;45.552;-122.600;2023-03-01T07:38:26;2.00;99.90
1361;DHT22;674;45.552;-122.600;2023-03-01T07:41:03;1.70;99.90
1361;DHT22;674;45.552;-122.600;2023-03-01T07:43:31;1.50;99.90
1361;DHT22;674;45.552;-122.600;2023-03-01T07:46:01;1.30;99.90
1361;DHT22;674;45.552;-122.600;2023-03-01T07:48:31;1.30;99.90
1361;DHT22;674;45.552;-122.600;2023-03-01T07:51:00;1.20;99.90
1361;DHT22;674;45.552;-122.600;2023-03-01T07:53:29;0.90;99.90
1361;DHT22;674;45.552;-122.600;2023-03-01T07:56:11;0.90;99.90
1361;DHT22;674;45.552;-122.600;2023-03-01T07:58:42;1.00;99.90
1361;DHT22;674;45.552;-122.600;2023-03-01T08:01:16;0.60;99.90
1361;DHT22;674;45.552;-122.600;2023-03-01T08:03:45;0.90;99.90
1361;DHT22;674;45.552;-122.600;2023-03-01T08:06:16;0.40;99.90
1361;DHT22;674;45.552;-122.600;2023-03-01T08:08:45;0.40;99.90
1361;DHT22;674;45.552;-122.600;2023-03-01T08:11:15;0.20;99.90
1361;DHT22;674;45.552;-122.600;2023-03-01T08:13:44;0.20;99.90
1361;DHT22;674;45.552;-122.600;2023-03-01T08:16:14;0.10;99.90
1361;DHT22;674;45.552;-122.600;2023-03-01T08:18:43;0.20;99.90
1361;DHT22;674;45.552;-122.600;2023-03-01T08:21:15;0.20;99.90
1361;DHT22;674;45.552;-122.600;2023-03-01T08:23:44;-0.10;99.90
1361;DHT22;674;45.552;-122.600;2023-03-01T08:26:18;0.00;99.90
1361;DHT22;674;45.552;-122.600;2023-03-01T08:28:48;0.40;99.90
1361;DHT22;674;45.552;-122.600;2023-03-01T08:31:21;0.10;99.90
1361;DHT22;674;45.552;-122.600;2023-03-01T08:33:52;0.30;99.90
1361;DHT22;674;45.552;-122.600;2023-03-01T08:36:24;0.40;99.90
1361;DHT22;674;45.552;-122.600;2023-03-01T08:38:54;0.20;99.90
1361;DHT22;674;45.552;-122.600;2023-03-01T08:41:23;0.40;99.90
1361;DHT22;674;45.552;-122.600;2023-03-01T08:43:51;0.20;99.90
1361;DHT22;674;45.552;-122.600;2023-03-01T08:46:21;0.40;99.90
1361;DHT22;674;45.552;-122.600;2023-03-01T08:48:49;0.30;99.90
1361;DHT22;674;45.552;-122.600;2023-03-01T08:51:20;0.10;99.90
1361;DHT22;674;45.552;-122.600;2023-03-01T08:53:49;0.30;99.90
1361;DHT22;674;45.552;-122.600;2023-03-01T08:56:18;0.10;99.90
1361;DHT22;674;45.552;-122.600;2023-03-01T08:58:48;0.00;99.90
1361;DHT22;674;45.552;-122.600;2023-03-01T09:01:18;0.20;99.90
1361;DHT22;674;45.552;-122.600;2023-03-01T09:03:47;0.20;99.90
1361;DHT22;674;45.552;-122.600;2023-03-01T09:06:16;0.00;99.90
1361;DHT22;674;45.552;-122.600;2023-03-01T09:08:47;0.10;99.90
1361;DHT22;674;45.552;-122.600;2023-03-01T09:11:19;0.20;99.90
1361;DHT22;674;45.552;-122.600;2023-03-01T09:13:48;0.20;99.90
1361;DHT22;674;45.552;-122.600;2023-03-01T09:16:18;0.40;99.90
1361;DHT22;674;45.552;-122.600;2023-03-01T09:18:52;0.20;99.90
1361;DHT22;674;45.552;-122.600;2023-03-01T09:21:22;0.20;99.90
1361;DHT22;674;45.552;-122.600;2023-03-01T09:24:11;0.40;99.90
1361;DHT22;674;45.552;-122.600;2023-03-01T09:26:41;0.40;99.90
1361;DHT22;674;45.552;-122.600;2023-03-01T09:29:10;0.40;99.90
1361;DHT22;674;45.552;-122.600;2023-03-01T09:31:39;0.40;99.90
1361;DHT22;674;45.552;-122.600;2023-03-01T09:34:08;0.50;99.90
1361;DHT22;674;45.552;-122.600;2023-03-01T09:36:37;0.40;99.90
1361;DHT22;674;45.552;-122.600;2023-03-01T09:39:05;0.60;99.90
1361;DHT22;674;45.552;-122.600;2023-03-01T09:41:49;0.70;99.90
1361;DHT22;674;45.552;-122.600;2023-03-01T09:47:00;0.90;99.90
1361;DHT22;674;45.552;-122.600;2023-03-01T09:49:35;1.10;99.90
1361;DHT22;674;45.552;-122.600;2023-03-01T09:54:55;1.00;99.90
1361;DHT22;674;45.552;-122.600;2023-03-01T10:08:40;1.20;99.90
1361;DHT22;674;45.552;-122.600;2023-03-01T10:11:31;1.50;99.90
1361;DHT22;674;45.552;-122.600;2023-03-01T10:17:04;1.10;99.90
1361;DHT22;674;45.552;-122.600;2023-03-01T10:19:43;1.10;99.90
1361;DHT22;674;45.552;-122.600;2023-03-01T10:22:24;0.90;99.90
1361;DHT22;674;45.552;-122.600;2023-03-01T10:24:56;1.00;99.90
1361;DHT22;674;45.552;-122.600;2023-03-01T10:28:00;1.10;99.90
1361;DHT22;674;45.552;-122.600;2023-03-01T10:30:46;1.20;99.90
1361;DHT22;674;45.552;-122.600;2023-03-01T10:33:26;1.70;99.90
1361;DHT22;674;45.552;-122.600;2023-03-01T10:35:55;1.70;99.90
1361;DHT22;674;45.552;-122.600;2023-03-01T10:38:24;1.70;99.90
1361;DHT22;674;45.552;-122.600;2023-03-01T10:41:00;1.40;99.90
1361;DHT22;674;45.552;-122.600;2023-03-01T10:46:33;1.70;99.90
1361;DHT22;674;45.552;-122.600;2023-03-01T10:49:22;1.70;99.90
1361;DHT22;674;45.552;-122.600;2023-03-01T10:51:54;1.50;99.90
1361;DHT22;674;45.552;-122.600;2023-03-01T10:54:27;1.10;99.90
1361;DHT22;674;45.552;-122.600;2023-03-01T10:57:04;1.40;99.90
1361;DHT22;674;45.552;-122.600;2023-03-01T10:59:36;0.90;99.90
1361;DHT22;674;45.552;-122.600;2023-03-01T11:02:29;1.20;99.90
1361;DHT22;674;45.552;-122.600;2023-03-01T11:07:51;1.50;99.90
1361;DHT22;674;45.552;-122.600;2023-03-01T11:10:24;1.60;99.90
1361;DHT22;674;45.552;-122.600;2023-03-01T11:12:54;1.30;99.90
1361;DHT22;674;45.552;-122.600;2023-03-01T11:15:33;1.70;99.90
1361;DHT22;674;45.552;-122.600;2023-03-01T11:18:02;1.50;99.90
1361;DHT22;674;45.552;-122.600;2023-03-01T11:20:40;1.70;99.90
1361;DHT22;674;45.552;-122.600;2023-03-01T11:23:12;1.40;99.90
1361;DHT22;674;45.552;-122.600;2023-03-01T11:26:00;1.60;99.90
1361;DHT22;674;45.552;-122.600;2023-03-01T11:28:30;1.70;99.90
1361;DHT22;674;45.552;-122.600;2023-03-01T11:31:00;1.70;99.90
1361;DHT22;674;45.552;-122.600;2023-03-01T11:36:28;1.90;99.90
1361;DHT22;674;45.552;-122.600;2023-03-01T11:38:53;2.00;99.90
1361;DHT22;674;45.552;-122.600;2023-03-01T11:41:33;1.90;99.90
1361;DHT22;674;45.552;-122.600;2023-03-01T11:44:20;2.10;99.90
1361;DHT22;674;45.552;-122.600;2023-03-01T11:47:24;2.20;99.90
1361;DHT22;674;45.552;-122.600;2023-03-01T11:53:13;1.90;99.90
1361;DHT22;674;45.552;-122.600;2023-03-01T11:56:14;1.80;99.90
1361;DHT22;674;45.552;-122.600;2023-03-01T11:59:27;1.80;99.90
1361;DHT22;674;45.552;-122.600;2023-03-01T12:10:27;2.50;99.90
1361;DHT22;674;45.552;-122.600;2023-03-01T12:16:20;1.80;99.90
1361;DHT22;674;45.552;-122.600;2023-03-01T12:32:33;2.50;99.90
1361;DHT22;674;45.552;-122.600;2023-03-01T12:35:20;2.50;99.90
1361;DHT22;674;45.552;-122.600;2023-03-01T12:38:48;2.50;99.90
1361;DHT22;674;45.552;-122.600;2023-03-01T12:47:25;2.40;99.90
1361;DHT22;674;45.552;-122.600;2023-03-01T12:50:04;2.10;99.90
1361;DHT22;674;45.552;-122.600;2023-03-01T12:55:31;2.00;99.90
1361;DHT22;674;45.552;-122.600;2023-03-01T13:04:02;2.50;99.90
1361;DHT22;674;45.552;-122.600;2023-03-01T13:09:48;1.90;99.90
1361;DHT22;674;45.552;-122.600;2023-03-01T13:15:32;1.80;99.90
1361;DHT22;674;45.552;-122.600;2023-03-01T13:20:57;1.70;99.90
1361;DHT22;674;45.552;-122.600;2023-03-01T13:23:29;1.70;99.90
1361;DHT22;674;45.552;-122.600;2023-03-01T13:28:48;1.60;99.90
1361;DHT22;674;45.552;-122.600;2023-03-01T13:33:58;2.20;99.90
1361;DHT22;674;45.552;-122.600;2023-03-01T13:39:13;2.30;99.90
1361;DHT22;674;45.552;-122.600;2023-03-01T13:41:51;1.90;99.90
1361;DHT22;674;45.552;-122.600;2023-03-01T13:44:30;2.10;99.90
1361;DHT22;674;45.552;-122.600;2023-03-01T13:47:14;2.00;99.90
1361;DHT22;674;45.552;-122.600;2023-03-01T13:49:57;1.90;99.90
1361;DHT22;674;45.552;-122.600;2023-03-01T13:52:59;1.70;99.90
1361;DHT22;674;45.552;-122.600;2023-03-01T13:55:47;2.00;99.90
1361;DHT22;674;45.552;-122.600;2023-03-01T14:00:44;1.90;99.90
1361;DHT22;674;45.552;-122.600;2023-03-01T14:03:14;1.80;99.90
1361;DHT22;674;45.552;-122.600;2023-03-01T14:08:41;2.00;99.90
1361;DHT22;674;45.552;-122.600;2023-03-01T14:14:17;1.90;99.90
1361;DHT22;674;45.552;-122.600;2023-03-01T14:22:44;1.80;99.90
1361;DHT22;674;45.552;-122.600;2023-03-01T14:25:36;2.20;99.90
1361;DHT22;674;45.552;-122.600;2023-03-01T14:28:29;2.30;99.90
1361;DHT22;674;45.552;-122.600;2023-03-01T14:30:59;1.80;99.90
1361;DHT22;674;45.552;-122.600;2023-03-01T14:33:35;1.90;99.90
1361;DHT22;674;45.552;-122.600;2023-03-01T14:36:11;1.60;99.90
1361;DHT22;674;45.552;-122.600;2023-03-01T14:38:47;1.30;99.90
1361;DHT22;674;45.552;-122.600;2023-03-01T14:41:19;1.40;99.90
1361;DHT22;674;45.552;-122.600;2023-03-01T14:44:00;1.50;99.90
1361;DHT22;674;45.552;-122.600;2023-03-01T14:46:41;1.50;99.90
1361;DHT22;674;45.552;-122.600;2023-03-01T14:49:23;1.30;99.90
1361;DHT22;674;45.552;-122.600;2023-03-01T14:54:29;1.00;99.90
1361;DHT22;674;45.552;-122.600;2023-03-01T14:57:00;0.70;99.90
1361;DHT22;674;45.552;-122.600;2023-03-01T14:59:29;1.20;99.90
1361;DHT22;674;45.552;-122.600;2023-03-01T15:01:58;1.00;99.90
1361;DHT22;674;45.552;-122.600;2023-03-01T15:04:28;1.10;99.90
1361;DHT22;674;45.552;-122.600;2023-03-01T15:06:59;1.00;99.90
1361;DHT22;674;45.552;-122.600;2023-03-01T15:09:34;0.90;99.90
1361;DHT22;674;45.552;-122.600;2023-03-01T15:12:39;0.90;99.90
1361;DHT22;674;45.552;-122.600;2023-03-01T15:15:45;1.20;99.90
1361;DHT22;674;45.552;-122.600;2023-03-01T15:18:48;1.20;99.90
1361;DHT22;674;45.552;-122.600;2023-03-01T15:21:47;1.70;99.90
1361;DHT22;674;45.552;-122.600;2023-03-01T15:24:23;1.70;99.90
1361;DHT22;674;45.552;-122.600;2023-03-01T15:26:58;1.50;99.90
1361;DHT22;674;45.552;-122.600;2023-03-01T15:29:31;1.40;99.90
1361;DHT22;674;45.552;-122.600;2023-03-01T15:32:05;1.50;99.90
1361;DHT22;674;45.552;-122.600;2023-03-01T15:34:36;1.60;99.90
1361;DHT22;674;45.552;-122.600;2023-03-01T15:40:29;2.10;99.90
1361;DHT22;674;45.552;-122.600;2023-03-01T15:43:05;2.10;99.90
1361;DHT22;674;45.552;-122.600;2023-03-01T15:45:34;2.50;99.90
1361;DHT22;674;45.552;-122.600;2023-03-01T15:48:15;1.90;99.90
1361;DHT22;674;45.552;-122.600;2023-03-01T15:50:57;1.90;99.90
1361;DHT22;674;45.552;-122.600;2023-03-01T15:53:26;2.00;99.90
1361;DHT22;674;45.552;-122.600;2023-03-01T15:55:55;1.70;99.90
1361;DHT22;674;45.552;-122.600;2023-03-01T15:58:25;1.70;99.90
1361;DHT22;674;45.552;-122.600;2023-03-01T16:00:53;2.20;99.90
1361;DHT22;674;45.552;-122.600;2023-03-01T16:03:28;2.00;99.90
1361;DHT22;674;45.552;-122.600;2023-03-01T16:05:57;2.10;99.90
1361;DHT22;674;45.552;-122.600;2023-03-01T16:08:25;2.20;99.90
1361;DHT22;674;45.552;-122.600;2023-03-01T16:10:54;2.40;99.90
1361;DHT22;674;45.552;-122.600;2023-03-01T16:13:22;2.60;99.90
1361;DHT22;674;45.552;-122.600;2023-03-01T16:15:51;3.00;99.90
1361;DHT22;674;45.552;-122.600;2023-03-01T16:18:19;3.30;99.90
1361;DHT22;674;45.552;-122.600;2023-03-01T16:20:48;3.80;99.90
1361;DHT22;674;45.552;-122.600;2023-03-01T16:23:16;4.10;99.90
1361;DHT22;674;45.552;-122.600;2023-03-01T16:25:45;4.10;68.10
1361;DHT22;674;45.552;-122.600;2023-03-01T16:28:13;4.00;51.50
1361;DHT22;674;45.552;-122.600;2023-03-01T16:30:46;4.10;62.00
1361;DHT22;674;45.552;-122.600;2023-03-01T16:33:16;4.80;60.30
1361;DHT22;674;45.552;-122.600;2023-03-01T16:36:11;4.40;17.40
1361;DHT22;674;45.552;-122.600;2023-03-01T16:38:39;4.30;13.80
1361;DHT22;674;45.552;-122.600;2023-03-01T16:41:16;5.00;13.70
1361;DHT22;674;45.552;-122.600;2023-03-01T16:43:46;4.70;1.00
1361;DHT22;674;45.552;-122.600;2023-03-01T16:46:17;5.20;1.00
1361;DHT22;674;45.552;-122.600;2023-03-01T16:48:46;5.30;1.00
1361;DHT22;674;45.552;-122.600;2023-03-01T16:51:16;4.70;1.00
1361;DHT22;674;45.552;-122.600;2023-03-01T16:53:45;5.20;1.00
1361;DHT22;674;45.552;-122.600;2023-03-01T16:56:14;5.50;1.00
1361;DHT22;674;45.552;-122.600;2023-03-01T16:58:43;5.40;1.00
1361;DHT22;674;45.552;-122.600;2023-03-01T17:01:15;5.60;1.00
1361;DHT22;674;45.552;-122.600;2023-03-01T17:03:44;5.50;1.00
1361;DHT22;674;45.552;-122.600;2023-03-01T17:06:16;5.70;1.00
1361;DHT22;674;45.552;-122.600;2023-03-01T17:08:46;6.50;1.00
1361;DHT22;674;45.552;-122.600;2023-03-01T17:11:17;7.40;1.00
1361;DHT22;674;45.552;-122.600;2023-03-01T17:13:46;8.20;1.00
1361;DHT22;674;45.552;-122.600;2023-03-01T17:16:18;8.20;1.00
1361;DHT22;674;45.552;-122.600;2023-03-01T17:18:47;8.00;1.00
1361;DHT22;674;45.552;-122.600;2023-03-01T17:21:16;7.60;1.00
1361;DHT22;674;45.552;-122.600;2023-03-01T17:23:46;7.10;1.00
1361;DHT22;674;45.552;-122.600;2023-03-01T17:26:15;7.30;1.00
1361;DHT22;674;45.552;-122.600;2023-03-01T17:28:44;7.20;1.00
1361;DHT22;674;45.552;-122.600;2023-03-01T17:31:19;6.90;1.00
1361;DHT22;674;45.552;-122.600;2023-03-01T17:33:48;6.90;1.00
1361;DHT22;674;45.552;-122.600;2023-03-01T17:36:17;7.00;1.00
1361;DHT22;674;45.552;-122.600;2023-03-01T17:38:45;6.60;1.00
1361;DHT22;674;45.552;-122.600;2023-03-01T17:41:14;7.00;1.00
1361;DHT22;674;45.552;-122.600;2023-03-01T17:43:45;7.30;1.00
1361;DHT22;674;45.552;-122.600;2023-03-01T17:46:14;7.50;1.00
1361;DHT22;674;45.552;-122.600;2023-03-01T17:48:43;7.40;1.00
1361;DHT22;674;45.552;-122.600;2023-03-01T17:51:11;7.20;1.00
1361;DHT22;674;45.552;-122.600;2023-03-01T17:53:40;7.80;1.00
1361;DHT22;674;45.552;-122.600;2023-03-01T17:56:09;7.90;1.00
1361;DHT22;674;45.552;-122.600;2023-03-01T17:58:38;8.10;1.00
1361;DHT22;674;45.552;-122.600;2023-03-01T18:01:18;7.60;1.00
1361;DHT22;674;45.552;-122.600;2023-03-01T18:03:50;8.40;1.00
1361;DHT22;674;45.552;-122.600;2023-03-01T18:06:22;8.60;1.00
1361;DHT22;674;45.552;-122.600;2023-03-01T18:08:52;8.90;1.00
1361;DHT22;674;45.552;-122.600;2023-03-01T18:11:24;8.90;1.00
1361;DHT22;674;45.552;-122.600;2023-03-01T18:13:53;9.00;1.00
1361;DHT22;674;45.552;-122.600;2023-03-01T18:16:22;8.40;1.00
1361;DHT22;674;45.552;-122.600;2023-03-01T18:18:55;7.80;1.00
1361;DHT22;674;45.552;-122.600;2023-03-01T18:21:25;7.50;1.00
1361;DHT22;674;45.552;-122.600;2023-03-01T18:23:53;7.30;1.00
1361;DHT22;674;45.552;-122.600;2023-03-01T18:26:22;7.20;1.00
1361;DHT22;674;45.552;-122.600;2023-03-01T18:28:52;7.00;1.00